ADDS METAR Data

Data at: 0515 UTC 19 Jan 2018

METAR for:KHYA (Hyannis/Barnstable M, MA, US)
Text:KHYA 190456Z AUTO 31007KT 10SM OVC031 M03/M08 A2991 RMK AO2 SLP131 T10281083 400061028
Temperature: -2.8°C ( 27°F)
Dewpoint: -8.3°C ( 17°F) [RH = 66%]
Pressure (altimeter):29.91 inches Hg (1013.0 mb) [Sea level pressure: 1013.1 mb]
Winds:from the NW (310 degrees) at 8 MPH (7 knots; 3.6 m/s)
Visibility:10 or more sm (16+ km)
Ceiling:3100 feet AGL
Clouds: overcast cloud deck at 3100 feet AGL
QC Flag:automated observation with no human augmentation